sensor_id;sensor_type;location;lat;lon;timestamp;P1;durP1;ratioP1;P2;durP2;ratioP2
65545;SDS011;52177;55.968;37.498;2023-12-20T00:00:17;0.70;;;0.70;;
65545;SDS011;52177;55.968;37.498;2023-12-20T00:00:47;1.70;;;0.93;;
65545;SDS011;52177;55.968;37.498;2023-12-20T00:01:18;2.72;;;0.90;;
65545;SDS011;52177;55.968;37.498;2023-12-20T00:01:48;0.70;;;0.70;;
65545;SDS011;52177;55.968;37.498;2023-12-20T00:02:19;1.13;;;0.63;;
65545;SDS011;52177;55.968;37.498;2023-12-20T00:02:49;1.15;;;0.70;;
65545;SDS011;52177;55.968;37.498;2023-12-20T00:03:20;1.63;;;0.70;;
65545;SDS011;52177;55.968;37.498;2023-12-20T00:03:50;0.70;;;0.70;;
65545;SDS011;52177;55.968;37.498;2023-12-20T00:04:20;0.70;;;0.70;;
65545;SDS011;52177;55.968;37.498;2023-12-20T00:04:50;0.80;;;0.80;;
65545;SDS011;52177;55.968;37.498;2023-12-20T00:05:21;0.70;;;0.70;;
65545;SDS011;52177;55.968;37.498;2023-12-20T00:05:51;0.63;;;0.63;;
65545;SDS011;52177;55.968;37.498;2023-12-20T00:06:21;0.68;;;0.68;;
65545;SDS011;52177;55.968;37.498;2023-12-20T00:06:52;1.85;;;0.80;;
65545;SDS011;52177;55.968;37.498;2023-12-20T00:07:22;0.95;;;0.60;;
65545;SDS011;52177;55.968;37.498;2023-12-20T00:07:53;1.45;;;0.70;;
65545;SDS011;52177;55.968;37.498;2023-12-20T00:08:23;1.95;;;0.70;;
65545;SDS011;52177;55.968;37.498;2023-12-20T00:08:53;0.70;;;0.70;;
65545;SDS011;52177;55.968;37.498;2023-12-20T00:09:24;1.30;;;0.60;;
65545;SDS011;52177;55.968;37.498;2023-12-20T00:09:54;0.80;;;0.57;;
65545;SDS011;52177;55.968;37.498;2023-12-20T00:10:24;1.27;;;0.73;;
65545;SDS011;52177;55.968;37.498;2023-12-20T00:10:54;0.90;;;0.68;;
65545;SDS011;52177;55.968;37.498;2023-12-20T00:11:25;0.93;;;0.60;;
65545;SDS011;52177;55.968;37.498;2023-12-20T00:11:55;0.50;;;0.50;;
65545;SDS011;52177;55.968;37.498;2023-12-20T00:12:25;1.95;;;0.70;;
65545;SDS011;52177;55.968;37.498;2023-12-20T00:12:56;0.95;;;0.60;;
65545;SDS011;52177;55.968;37.498;2023-12-20T00:13:26;1.75;;;0.63;;
65545;SDS011;52177;55.968;37.498;2023-12-20T00:13:56;1.38;;;0.70;;
65545;SDS011;52177;55.968;37.498;2023-12-20T00:14:27;1.00;;;0.50;;
65545;SDS011;52177;55.968;37.498;2023-12-20T00:14:57;0.60;;;0.60;;
65545;SDS011;52177;55.968;37.498;2023-12-20T00:15:28;0.75;;;0.70;;
65545;SDS011;52177;55.968;37.498;2023-12-20T00:15:58;0.80;;;0.60;;
65545;SDS011;52177;55.968;37.498;2023-12-20T00:16:28;0.85;;;0.60;;
65545;SDS011;52177;55.968;37.498;2023-12-20T00:16:59;0.75;;;0.60;;
65545;SDS011;52177;55.968;37.498;2023-12-20T00:17:29;0.70;;;0.70;;
65545;SDS011;52177;55.968;37.498;2023-12-20T00:17:59;0.70;;;0.70;;
65545;SDS011;52177;55.968;37.498;2023-12-20T00:18:30;0.65;;;0.63;;
65545;SDS011;52177;55.968;37.498;2023-12-20T00:19:01;0.65;;;0.65;;
65545;SDS011;52177;55.968;37.498;2023-12-20T00:19:31;1.77;;;0.77;;
65545;SDS011;52177;55.968;37.498;2023-12-20T00:20:01;0.80;;;0.73;;
65545;SDS011;52177;55.968;37.498;2023-12-20T00:20:32;0.52;;;0.52;;
65545;SDS011;52177;55.968;37.498;2023-12-20T00:21:02;0.90;;;0.60;;
65545;SDS011;52177;55.968;37.498;2023-12-20T00:21:33;0.75;;;0.60;;
65545;SDS011;52177;55.968;37.498;2023-12-20T00:22:03;1.35;;;0.80;;
65545;SDS011;52177;55.968;37.498;2023-12-20T00:22:34;0.85;;;0.60;;
65545;SDS011;52177;55.968;37.498;2023-12-20T00:23:04;0.70;;;0.70;;
65545;SDS011;52177;55.968;37.498;2023-12-20T00:23:35;1.15;;;0.75;;
65545;SDS011;52177;55.968;37.498;2023-12-20T00:24:05;0.73;;;0.60;;
65545;SDS011;52177;55.968;37.498;2023-12-20T00:24:35;0.77;;;0.70;;
65545;SDS011;52177;55.968;37.498;2023-12-20T00:25:06;0.85;;;0.60;;
65545;SDS011;52177;55.968;37.498;2023-12-20T00:25:37;1.10;;;0.70;;
65545;SDS011;52177;55.968;37.498;2023-12-20T00:26:07;1.13;;;0.77;;
65545;SDS011;52177;55.968;37.498;2023-12-20T00:26:37;1.42;;;0.50;;
65545;SDS011;52177;55.968;37.498;2023-12-20T00:27:08;1.25;;;0.68;;
65545;SDS011;52177;55.968;37.498;2023-12-20T00:27:38;0.82;;;0.60;;
65545;SDS011;52177;55.968;37.498;2023-12-20T00:28:08;0.70;;;0.70;;
65545;SDS011;52177;55.968;37.498;2023-12-20T00:28:39;1.98;;;0.70;;
65545;SDS011;52177;55.968;37.498;2023-12-20T00:29:09;1.00;;;0.70;;
65545;SDS011;52177;55.968;37.498;2023-12-20T00:29:39;1.02;;;0.60;;
65545;SDS011;52177;55.968;37.498;2023-12-20T00:30:10;1.08;;;0.73;;
65545;SDS011;52177;55.968;37.498;2023-12-20T00:30:40;0.98;;;0.60;;
65545;SDS011;52177;55.968;37.498;2023-12-20T00:31:11;0.80;;;0.80;;
65545;SDS011;52177;55.968;37.498;2023-12-20T00:31:41;0.52;;;0.50;;
65545;SDS011;52177;55.968;37.498;2023-12-20T00:32:11;1.73;;;0.65;;
65545;SDS011;52177;55.968;37.498;2023-12-20T00:32:42;2.28;;;0.70;;
65545;SDS011;52177;55.968;37.498;2023-12-20T00:33:18;1.25;;;0.73;;
65545;SDS011;52177;55.968;37.498;2023-12-20T00:33:49;0.77;;;0.77;;
65545;SDS011;52177;55.968;37.498;2023-12-20T00:34:19;1.73;;;1.00;;
65545;SDS011;52177;55.968;37.498;2023-12-20T00:34:49;0.77;;;0.70;;
65545;SDS011;52177;55.968;37.498;2023-12-20T00:35:20;1.75;;;0.80;;
65545;SDS011;52177;55.968;37.498;2023-12-20T00:35:50;0.73;;;0.70;;
65545;SDS011;52177;55.968;37.498;2023-12-20T00:36:20;0.80;;;0.80;;
65545;SDS011;52177;55.968;37.498;2023-12-20T00:36:51;1.38;;;0.80;;
65545;SDS011;52177;55.968;37.498;2023-12-20T00:37:21;1.02;;;0.93;;
65545;SDS011;52177;55.968;37.498;2023-12-20T00:37:51;0.95;;;0.70;;
65545;SDS011;52177;55.968;37.498;2023-12-20T00:38:22;1.48;;;0.80;;
65545;SDS011;52177;55.968;37.498;2023-12-20T00:38:52;1.48;;;0.60;;
65545;SDS011;52177;55.968;37.498;2023-12-20T00:39:23;0.95;;;0.80;;
65545;SDS011;52177;55.968;37.498;2023-12-20T00:39:54;0.85;;;0.60;;
65545;SDS011;52177;55.968;37.498;2023-12-20T00:40:24;2.53;;;0.80;;
65545;SDS011;52177;55.968;37.498;2023-12-20T00:40:54;0.68;;;0.60;;
65545;SDS011;52177;55.968;37.498;2023-12-20T00:41:25;0.63;;;0.63;;
65545;SDS011;52177;55.968;37.498;2023-12-20T00:41:55;0.80;;;0.70;;
65545;SDS011;52177;55.968;37.498;2023-12-20T00:42:25;1.42;;;0.88;;
65545;SDS011;52177;55.968;37.498;2023-12-20T00:42:56;1.63;;;0.70;;
65545;SDS011;52177;55.968;37.498;2023-12-20T00:43:26;1.73;;;0.90;;
65545;SDS011;52177;55.968;37.498;2023-12-20T00:43:56;2.20;;;0.90;;
65545;SDS011;52177;55.968;37.498;2023-12-20T00:44:27;0.60;;;0.60;;
65545;SDS011;52177;55.968;37.498;2023-12-20T00:44:58;0.93;;;0.75;;
65545;SDS011;52177;55.968;37.498;2023-12-20T00:45:29;0.82;;;0.82;;
65545;SDS011;52177;55.968;37.498;2023-12-20T00:45:59;0.73;;;0.73;;
65545;SDS011;52177;55.968;37.498;2023-12-20T00:46:30;0.85;;;0.68;;
65545;SDS011;52177;55.968;37.498;2023-12-20T00:47:00;0.75;;;0.75;;
65545;SDS011;52177;55.968;37.498;2023-12-20T00:47:31;0.80;;;0.75;;
65545;SDS011;52177;55.968;37.498;2023-12-20T00:48:01;1.45;;;0.68;;
65545;SDS011;52177;55.968;37.498;2023-12-20T00:48:31;0.70;;;0.70;;
65545;SDS011;52177;55.968;37.498;2023-12-20T00:49:02;0.60;;;0.60;;
65545;SDS011;52177;55.968;37.498;2023-12-20T00:49:32;1.48;;;0.70;;
65545;SDS011;52177;55.968;37.498;2023-12-20T00:50:03;1.00;;;0.90;;
65545;SDS011;52177;55.968;37.498;2023-12-20T00:50:34;0.95;;;0.88;;
65545;SDS011;52177;55.968;37.498;2023-12-20T00:51:04;1.25;;;0.77;;
65545;SDS011;52177;55.968;37.498;2023-12-20T00:51:34;2.03;;;0.80;;
65545;SDS011;52177;55.968;37.498;2023-12-20T00:52:05;1.00;;;0.80;;
65545;SDS011;52177;55.968;37.498;2023-12-20T00:52:35;0.70;;;0.70;;
65545;SDS011;52177;55.968;37.498;2023-12-20T00:53:06;1.08;;;0.88;;
65545;SDS011;52177;55.968;37.498;2023-12-20T00:53:36;1.80;;;0.90;;
65545;SDS011;52177;55.968;37.498;2023-12-20T00:54:06;0.60;;;0.60;;
65545;SDS011;52177;55.968;37.498;2023-12-20T00:54:37;0.80;;;0.80;;
65545;SDS011;52177;55.968;37.498;2023-12-20T00:55:07;0.73;;;0.70;;
65545;SDS011;52177;55.968;37.498;2023-12-20T00:55:37;1.00;;;0.80;;
65545;SDS011;52177;55.968;37.498;2023-12-20T00:56:08;0.63;;;0.63;;
65545;SDS011;52177;55.968;37.498;2023-12-20T00:56:38;0.80;;;0.80;;
65545;SDS011;52177;55.968;37.498;2023-12-20T00:57:08;1.55;;;0.75;;
65545;SDS011;52177;55.968;37.498;2023-12-20T00:57:39;0.75;;;0.60;;
65545;SDS011;52177;55.968;37.498;2023-12-20T00:58:09;0.60;;;0.60;;
65545;SDS011;52177;55.968;37.498;2023-12-20T00:58:40;1.13;;;0.70;;
65545;SDS011;52177;55.968;37.498;2023-12-20T00:59:10;0.70;;;0.70;;
65545;SDS011;52177;55.968;37.498;2023-12-20T00:59:41;1.90;;;0.70;;
65545;SDS011;52177;55.968;37.498;2023-12-20T01:00:11;1.00;;;0.60;;
65545;SDS011;52177;55.968;37.498;2023-12-20T01:00:43;0.70;;;0.70;;
65545;SDS011;52177;55.968;37.498;2023-12-20T01:01:14;1.00;;;0.65;;
65545;SDS011;52177;55.968;37.498;2023-12-20T01:01:45;0.60;;;0.60;;
65545;SDS011;52177;55.968;37.498;2023-12-20T01:02:15;0.68;;;0.68;;
65545;SDS011;52177;55.968;37.498;2023-12-20T01:02:45;0.80;;;0.68;;
65545;SDS011;52177;55.968;37.498;2023-12-20T01:03:19;1.20;;;0.63;;
65545;SDS011;52177;55.968;37.498;2023-12-20T01:03:49;2.88;;;0.75;;
65545;SDS011;52177;55.968;37.498;2023-12-20T01:04:21;0.90;;;0.60;;
65545;SDS011;52177;55.968;37.498;2023-12-20T01:04:51;2.50;;;0.82;;
65545;SDS011;52177;55.968;37.498;2023-12-20T01:05:22;1.40;;;0.70;;
65545;SDS011;52177;55.968;37.498;2023-12-20T01:05:55;1.10;;;0.65;;
65545;SDS011;52177;55.968;37.498;2023-12-20T01:06:25;0.95;;;0.70;;
65545;SDS011;52177;55.968;37.498;2023-12-20T01:06:55;0.80;;;0.70;;
65545;SDS011;52177;55.968;37.498;2023-12-20T01:07:26;0.85;;;0.63;;
65545;SDS011;52177;55.968;37.498;2023-12-20T01:07:56;0.95;;;0.77;;
65545;SDS011;52177;55.968;37.498;2023-12-20T01:08:26;1.52;;;0.63;;
65545;SDS011;52177;55.968;37.498;2023-12-20T01:08:57;0.75;;;0.50;;
65545;SDS011;52177;55.968;37.498;2023-12-20T01:09:27;0.80;;;0.60;;
65545;SDS011;52177;55.968;37.498;2023-12-20T01:09:58;0.80;;;0.70;;
65545;SDS011;52177;55.968;37.498;2023-12-20T01:10:28;0.60;;;0.60;;
65545;SDS011;52177;55.968;37.498;2023-12-20T01:10:59;1.45;;;0.60;;
65545;SDS011;52177;55.968;37.498;2023-12-20T01:11:29;1.65;;;0.80;;
65545;SDS011;52177;55.968;37.498;2023-12-20T01:12:00;2.85;;;0.75;;
65545;SDS011;52177;55.968;37.498;2023-12-20T01:12:30;0.85;;;0.80;;
65545;SDS011;52177;55.968;37.498;2023-12-20T01:13:00;0.82;;;0.60;;
65545;SDS011;52177;55.968;37.498;2023-12-20T01:13:31;1.15;;;0.70;;
65545;SDS011;52177;55.968;37.498;2023-12-20T01:14:01;1.00;;;0.90;;
65545;SDS011;52177;55.968;37.498;2023-12-20T01:14:31;1.58;;;0.80;;
65545;SDS011;52177;55.968;37.498;2023-12-20T01:15:02;1.73;;;0.70;;
65545;SDS011;52177;55.968;37.498;2023-12-20T01:15:32;0.70;;;0.70;;
65545;SDS011;52177;55.968;37.498;2023-12-20T01:16:03;0.95;;;0.70;;
65545;SDS011;52177;55.968;37.498;2023-12-20T01:16:33;1.20;;;0.70;;
65545;SDS011;52177;55.968;37.498;2023-12-20T01:17:04;1.25;;;0.60;;
65545;SDS011;52177;55.968;37.498;2023-12-20T01:17:34;1.80;;;0.90;;
65545;SDS011;52177;55.968;37.498;2023-12-20T01:18:05;0.93;;;0.70;;
65545;SDS011;52177;55.968;37.498;2023-12-20T01:18:35;1.30;;;0.80;;
65545;SDS011;52177;55.968;37.498;2023-12-20T01:19:05;2.08;;;0.85;;
65545;SDS011;52177;55.968;37.498;2023-12-20T01:19:36;1.30;;;0.70;;
65545;SDS011;52177;55.968;37.498;2023-12-20T01:20:07;0.70;;;0.70;;
65545;SDS011;52177;55.968;37.498;2023-12-20T01:20:38;2.70;;;0.80;;
65545;SDS011;52177;55.968;37.498;2023-12-20T01:21:08;2.22;;;0.98;;
65545;SDS011;52177;55.968;37.498;2023-12-20T01:21:39;0.82;;;0.68;;
65545;SDS011;52177;55.968;37.498;2023-12-20T01:22:09;1.25;;;0.70;;
65545;SDS011;52177;55.968;37.498;2023-12-20T01:22:40;1.00;;;0.85;;
65545;SDS011;52177;55.968;37.498;2023-12-20T01:23:12;0.65;;;0.65;;
65545;SDS011;52177;55.968;37.498;2023-12-20T01:23:43;1.73;;;0.70;;
65545;SDS011;52177;55.968;37.498;2023-12-20T01:24:13;2.65;;;0.90;;
65545;SDS011;52177;55.968;37.498;2023-12-20T01:24:43;1.95;;;1.00;;
65545;SDS011;52177;55.968;37.498;2023-12-20T01:25:14;3.92;;;0.80;;
65545;SDS011;52177;55.968;37.498;2023-12-20T01:25:44;1.75;;;0.90;;
65545;SDS011;52177;55.968;37.498;2023-12-20T01:26:14;0.77;;;0.77;;
65545;SDS011;52177;55.968;37.498;2023-12-20T01:26:45;1.10;;;0.90;;
65545;SDS011;52177;55.968;37.498;2023-12-20T01:27:15;1.85;;;0.93;;
65545;SDS011;52177;55.968;37.498;2023-12-20T01:27:46;0.93;;;0.80;;
65545;SDS011;52177;55.968;37.498;2023-12-20T01:28:16;1.52;;;0.90;;
65545;SDS011;52177;55.968;37.498;2023-12-20T01:28:46;1.50;;;0.98;;
65545;SDS011;52177;55.968;37.498;2023-12-20T01:29:17;0.85;;;0.80;;
65545;SDS011;52177;55.968;37.498;2023-12-20T01:29:47;1.38;;;0.80;;
65545;SDS011;52177;55.968;37.498;2023-12-20T01:30:17;1.75;;;0.80;;
65545;SDS011;52177;55.968;37.498;2023-12-20T01:30:48;1.08;;;0.90;;
65545;SDS011;52177;55.968;37.498;2023-12-20T01:31:18;1.55;;;0.85;;
65545;SDS011;52177;55.968;37.498;2023-12-20T01:31:48;1.15;;;0.85;;
65545;SDS011;52177;55.968;37.498;2023-12-20T01:32:19;2.38;;;1.13;;
65545;SDS011;52177;55.968;37.498;2023-12-20T01:32:49;1.30;;;0.90;;
65545;SDS011;52177;55.968;37.498;2023-12-20T01:33:19;2.40;;;0.80;;
65545;SDS011;52177;55.968;37.498;2023-12-20T01:33:50;1.38;;;0.80;;
65545;SDS011;52177;55.968;37.498;2023-12-20T01:34:20;2.17;;;1.00;;
65545;SDS011;52177;55.968;37.498;2023-12-20T01:34:51;0.70;;;0.70;;
65545;SDS011;52177;55.968;37.498;2023-12-20T01:35:21;2.58;;;1.00;;
65545;SDS011;52177;55.968;37.498;2023-12-20T01:35:51;1.05;;;0.90;;
65545;SDS011;52177;55.968;37.498;2023-12-20T01:36:22;2.75;;;1.02;;
65545;SDS011;52177;55.968;37.498;2023-12-20T01:36:52;1.15;;;0.90;;
65545;SDS011;52177;55.968;37.498;2023-12-20T01:37:22;2.30;;;1.02;;
65545;SDS011;52177;55.968;37.498;2023-12-20T01:37:55;1.30;;;0.90;;
65545;SDS011;52177;55.968;37.498;2023-12-20T01:38:26;1.45;;;1.02;;
65545;SDS011;52177;55.968;37.498;2023-12-20T01:38:57;3.35;;;1.00;;
65545;SDS011;52177;55.968;37.498;2023-12-20T01:39:27;1.65;;;0.90;;
65545;SDS011;52177;55.968;37.498;2023-12-20T01:39:57;1.83;;;1.00;;
65545;SDS011;52177;55.968;37.498;2023-12-20T01:40:28;1.30;;;0.82;;
65545;SDS011;52177;55.968;37.498;2023-12-20T01:40:59;1.75;;;1.27;;
65545;SDS011;52177;55.968;37.498;2023-12-20T01:41:30;2.05;;;1.20;;
65545;SDS011;52177;55.968;37.498;2023-12-20T01:42:00;2.88;;;1.20;;
65545;SDS011;52177;55.968;37.498;2023-12-20T01:42:30;1.92;;;1.10;;
65545;SDS011;52177;55.968;37.498;2023-12-20T01:43:01;2.08;;;1.20;;
65545;SDS011;52177;55.968;37.498;2023-12-20T01:43:36;1.38;;;1.00;;
65545;SDS011;52177;55.968;37.498;2023-12-20T01:44:06;1.73;;;1.08;;
65545;SDS011;52177;55.968;37.498;2023-12-20T01:44:37;1.13;;;1.02;;
65545;SDS011;52177;55.968;37.498;2023-12-20T01:45:07;3.45;;;1.25;;
65545;SDS011;52177;55.968;37.498;2023-12-20T01:45:38;3.33;;;1.10;;
65545;SDS011;52177;55.968;37.498;2023-12-20T01:46:08;2.13;;;1.50;;
65545;SDS011;52177;55.968;37.498;2023-12-20T01:46:39;2.63;;;1.23;;
65545;SDS011;52177;55.968;37.498;2023-12-20T01:47:09;2.65;;;1.35;;
65545;SDS011;52177;55.968;37.498;2023-12-20T01:47:40;4.22;;;1.42;;
65545;SDS011;52177;55.968;37.498;2023-12-20T01:48:10;2.55;;;1.50;;
65545;SDS011;52177;55.968;37.498;2023-12-20T01:48:41;3.85;;;1.25;;
65545;SDS011;52177;55.968;37.498;2023-12-20T01:49:11;2.67;;;1.65;;
65545;SDS011;52177;55.968;37.498;2023-12-20T01:49:42;2.13;;;1.13;;
65545;SDS011;52177;55.968;37.498;2023-12-20T01:50:13;4.00;;;1.58;;
65545;SDS011;52177;55.968;37.498;2023-12-20T01:50:44;1.70;;;1.40;;
65545;SDS011;52177;55.968;37.498;2023-12-20T01:51:15;1.88;;;1.42;;
65545;SDS011;52177;55.968;37.498;2023-12-20T01:51:46;3.05;;;1.45;;
65545;SDS011;52177;55.968;37.498;2023-12-20T01:52:18;2.53;;;1.50;;
65545;SDS011;52177;55.968;37.498;2023-12-20T01:52:49;2.72;;;1.63;;
65545;SDS011;52177;55.968;37.498;2023-12-20T01:53:22;2.97;;;1.52;;
65545;SDS011;52177;55.968;37.498;2023-12-20T01:53:55;1.95;;;1.42;;
65545;SDS011;52177;55.968;37.498;2023-12-20T01:54:27;3.55;;;1.75;;
65545;SDS011;52177;55.968;37.498;2023-12-20T01:54:58;2.08;;;1.40;;
65545;SDS011;52177;55.968;37.498;2023-12-20T01:55:33;2.63;;;1.58;;
65545;SDS011;52177;55.968;37.498;2023-12-20T01:56:06;2.42;;;1.20;;
65545;SDS011;52177;55.968;37.498;2023-12-20T01:56:37;2.20;;;1.58;;
65545;SDS011;52177;55.968;37.498;2023-12-20T01:57:08;2.10;;;1.50;;
65545;SDS011;52177;55.968;37.498;2023-12-20T01:57:40;1.75;;;1.17;;
65545;SDS011;52177;55.968;37.498;2023-12-20T01:58:14;2.85;;;1.40;;
65545;SDS011;52177;55.968;37.498;2023-12-20T01:58:46;3.78;;;1.60;;
65545;SDS011;52177;55.968;37.498;2023-12-20T01:59:18;2.88;;;1.80;;
65545;SDS011;52177;55.968;37.498;2023-12-20T01:59:50;2.17;;;1.50;;
65545;SDS011;52177;55.968;37.498;2023-12-20T02:00:21;3.58;;;1.58;;
65545;SDS011;52177;55.968;37.498;2023-12-20T02:00:53;1.73;;;1.45;;
65545;SDS011;52177;55.968;37.498;2023-12-20T02:01:24;3.42;;;1.52;;
65545;SDS011;52177;55.968;37.498;2023-12-20T02:01:55;3.75;;;1.38;;
65545;SDS011;52177;55.968;37.498;2023-12-20T02:02:26;2.50;;;1.50;;
65545;SDS011;52177;55.968;37.498;2023-12-20T02:03:00;3.17;;;1.63;;
65545;SDS011;52177;55.968;37.498;2023-12-20T02:03:32;2.05;;;1.63;;
65545;SDS011;52177;55.968;37.498;2023-12-20T02:04:02;2.90;;;1.30;;
65545;SDS011;52177;55.968;37.498;2023-12-20T02:04:33;1.58;;;1.30;;
65545;SDS011;52177;55.968;37.498;2023-12-20T02:05:05;2.58;;;1.30;;
65545;SDS011;52177;55.968;37.498;2023-12-20T02:05:36;3.05;;;1.50;;
65545;SDS011;52177;55.968;37.498;2023-12-20T02:06:08;2.65;;;1.60;;
65545;SDS011;52177;55.968;37.498;2023-12-20T02:06:39;2.45;;;1.55;;
65545;SDS011;52177;55.968;37.498;2023-12-20T02:07:10;2.17;;;1.50;;
65545;SDS011;52177;55.968;37.498;2023-12-20T02:07:41;2.08;;;1.52;;
65545;SDS011;52177;55.968;37.498;2023-12-20T02:08:12;4.20;;;1.50;;
65545;SDS011;52177;55.968;37.498;2023-12-20T02:08:42;1.60;;;1.42;;
65545;SDS011;52177;55.968;37.498;2023-12-20T02:09:12;1.60;;;1.30;;
65545;SDS011;52177;55.968;37.498;2023-12-20T02:09:43;1.63;;;1.50;;
65545;SDS011;52177;55.968;37.498;2023-12-20T02:10:14;2.78;;;1.50;;
65545;SDS011;52177;55.968;37.498;2023-12-20T02:10:45;2.67;;;1.67;;
65545;SDS011;52177;55.968;37.498;2023-12-20T02:11:17;2.72;;;1.75;;
65545;SDS011;52177;55.968;37.498;2023-12-20T02:11:47;2.80;;;1.60;;
65545;SDS011;52177;55.968;37.498;2023-12-20T02:12:18;5.70;;;1.55;;
65545;SDS011;52177;55.968;37.498;2023-12-20T02:12:49;2.40;;;1.60;;
65545;SDS011;52177;55.968;37.498;2023-12-20T02:13:20;2.45;;;1.50;;
65545;SDS011;52177;55.968;37.498;2023-12-20T02:13:50;2.35;;;1.50;;
65545;SDS011;52177;55.968;37.498;2023-12-20T02:14:20;3.05;;;1.83;;
65545;SDS011;52177;55.968;37.498;2023-12-20T02:14:51;3.08;;;1.50;;
65545;SDS011;52177;55.968;37.498;2023-12-20T02:15:21;2.35;;;1.50;;
65545;SDS011;52177;55.968;37.498;2023-12-20T02:15:52;3.15;;;1.63;;
65545;SDS011;52177;55.968;37.498;2023-12-20T02:16:22;1.80;;;1.30;;
65545;SDS011;52177;55.968;37.498;2023-12-20T02:16:53;4.03;;;1.50;;
65545;SDS011;52177;55.968;37.498;2023-12-20T02:17:23;2.20;;;1.60;;
65545;SDS011;52177;55.968;37.498;2023-12-20T02:17:54;2.60;;;1.60;;
65545;SDS011;52177;55.968;37.498;2023-12-20T02:18:24;2.55;;;1.50;;
65545;SDS011;52177;55.968;37.498;2023-12-20T02:18:55;1.65;;;1.55;;
65545;SDS011;52177;55.968;37.498;2023-12-20T02:19:25;2.70;;;1.70;;
65545;SDS011;52177;55.968;37.498;2023-12-20T02:19:55;3.72;;;1.50;;
65545;SDS011;52177;55.968;37.498;2023-12-20T02:20:26;1.77;;;1.50;;
65545;SDS011;52177;55.968;37.498;2023-12-20T02:20:56;2.60;;;1.80;;
65545;SDS011;52177;55.968;37.498;2023-12-20T02:21:32;2.35;;;1.48;;
65545;SDS011;52177;55.968;37.498;2023-12-20T02:22:09;3.47;;;1.77;;
65545;SDS011;52177;55.968;37.498;2023-12-20T02:22:40;3.00;;;1.58;;
65545;SDS011;52177;55.968;37.498;2023-12-20T02:23:10;2.58;;;1.50;;
65545;SDS011;52177;55.968;37.498;2023-12-20T02:23:41;3.47;;;1.67;;
65545;SDS011;52177;55.968;37.498;2023-12-20T02:24:11;5.57;;;2.10;;
65545;SDS011;52177;55.968;37.498;2023-12-20T02:24:41;2.88;;;1.65;;
65545;SDS011;52177;55.968;37.498;2023-12-20T02:25:12;2.30;;;1.70;;
65545;SDS011;52177;55.968;37.498;2023-12-20T02:25:42;3.97;;;1.83;;
65545;SDS011;52177;55.968;37.498;2023-12-20T02:26:12;1.80;;;1.70;;
65545;SDS011;52177;55.968;37.498;2023-12-20T02:26:43;3.63;;;1.73;;
65545;SDS011;52177;55.968;37.498;2023-12-20T02:27:14;2.28;;;1.88;;
65545;SDS011;52177;55.968;37.498;2023-12-20T02:27:48;2.85;;;1.80;;
65545;SDS011;52177;55.968;37.498;2023-12-20T02:28:19;2.00;;;1.65;;
65545;SDS011;52177;55.968;37.498;2023-12-20T02:28:49;3.90;;;1.92;;
65545;SDS011;52177;55.968;37.498;2023-12-20T02:29:20;3.92;;;1.73;;
65545;SDS011;52177;55.968;37.498;2023-12-20T02:29:50;1.83;;;1.60;;
65545;SDS011;52177;55.968;37.498;2023-12-20T02:30:21;2.38;;;1.90;;
65545;SDS011;52177;55.968;37.498;2023-12-20T02:30:51;2.55;;;1.60;;
65545;SDS011;52177;55.968;37.498;2023-12-20T02:31:22;3.15;;;2.00;;
65545;SDS011;52177;55.968;37.498;2023-12-20T02:31:53;2.33;;;1.70;;
65545;SDS011;52177;55.968;37.498;2023-12-20T02:32:24;2.20;;;1.92;;
65545;SDS011;52177;55.968;37.498;2023-12-20T02:32:58;3.22;;;1.92;;
65545;SDS011;52177;55.968;37.498;2023-12-20T02:33:29;2.17;;;1.88;;
65545;SDS011;52177;55.968;37.498;2023-12-20T02:34:00;3.47;;;1.85;;
65545;SDS011;52177;55.968;37.498;2023-12-20T02:34:30;2.20;;;1.85;;
65545;SDS011;52177;55.968;37.498;2023-12-20T02:35:00;1.98;;;1.83;;
65545;SDS011;52177;55.968;37.498;2023-12-20T02:35:31;4.07;;;2.08;;
65545;SDS011;52177;55.968;37.498;2023-12-20T02:36:01;3.28;;;2.00;;
65545;SDS011;52177;55.968;37.498;2023-12-20T02:36:31;2.78;;;2.00;;
65545;SDS011;52177;55.968;37.498;2023-12-20T02:37:02;2.30;;;2.10;;
65545;SDS011;52177;55.968;37.498;2023-12-20T02:37:32;2.88;;;1.70;;
65545;SDS011;52177;55.968;37.498;2023-12-20T02:38:03;2.35;;;2.05;;
65545;SDS011;52177;55.968;37.498;2023-12-20T02:38:34;4.65;;;2.30;;
65545;SDS011;52177;55.968;37.498;2023-12-20T02:39:04;2.15;;;1.75;;
65545;SDS011;52177;55.968;37.498;2023-12-20T02:39:34;2.47;;;1.90;;
65545;SDS011;52177;55.968;37.498;2023-12-20T02:40:05;2.22;;;1.70;;
65545;SDS011;52177;55.968;37.498;2023-12-20T02:40:36;2.63;;;1.90;;
65545;SDS011;52177;55.968;37.498;2023-12-20T02:41:06;3.95;;;2.13;;
65545;SDS011;52177;55.968;37.498;2023-12-20T02:41:36;1.95;;;1.70;;
65545;SDS011;52177;55.968;37.498;2023-12-20T02:42:07;2.55;;;1.50;;
65545;SDS011;52177;55.968;37.498;2023-12-20T02:42:37;2.30;;;1.50;;
65545;SDS011;52177;55.968;37.498;2023-12-20T02:43:07;4.68;;;1.60;;
65545;SDS011;52177;55.968;37.498;2023-12-20T02:43:38;3.28;;;1.80;;
65545;SDS011;52177;55.968;37.498;2023-12-20T02:44:08;1.77;;;1.67;;
65545;SDS011;52177;55.968;37.498;2023-12-20T02:44:38;1.60;;;1.50;;
65545;SDS011;52177;55.968;37.498;2023-12-20T02:45:09;2.08;;;1.60;;
65545;SDS011;52177;55.968;37.498;2023-12-20T02:45:39;1.80;;;1.50;;
65545;SDS011;52177;55.968;37.498;2023-12-20T02:46:10;3.38;;;1.55;;
65545;SDS011;52177;55.968;37.498;2023-12-20T02:46:40;2.28;;;1.55;;
65545;SDS011;52177;55.968;37.498;2023-12-20T02:47:10;2.67;;;1.50;;
65545;SDS011;52177;55.968;37.498;2023-12-20T02:47:40;2.50;;;1.55;;
65545;SDS011;52177;55.968;37.498;2023-12-20T02:48:11;3.33;;;1.60;;
65545;SDS011;52177;55.968;37.498;2023-12-20T02:48:41;1.75;;;1.50;;
65545;SDS011;52177;55.968;37.498;2023-12-20T02:49:11;2.10;;;1.50;;
65545;SDS011;52177;55.968;37.498;2023-12-20T02:49:42;2.22;;;1.50;;
65545;SDS011;52177;55.968;37.498;2023-12-20T02:50:12;2.05;;;1.60;;
65545;SDS011;52177;55.968;37.498;2023-12-20T02:50:43;2.20;;;1.60;;
65545;SDS011;52177;55.968;37.498;2023-12-20T02:51:13;2.63;;;1.65;;
65545;SDS011;52177;55.968;37.498;2023-12-20T02:51:43;2.13;;;1.40;;
65545;SDS011;52177;55.968;37.498;2023-12-20T02:52:14;3.28;;;1.60;;
65545;SDS011;52177;55.968;37.498;2023-12-20T02:52:44;2.97;;;1.60;;
65545;SDS011;52177;55.968;37.498;2023-12-20T02:53:15;2.25;;;1.30;;
65545;SDS011;52177;55.968;37.498;2023-12-20T02:53:45;3.50;;;1.50;;
65545;SDS011;52177;55.968;37.498;2023-12-20T02:54:16;2.20;;;1.50;;
65545;SDS011;52177;55.968;37.498;2023-12-20T02:54:46;3.53;;;1.80;;
65545;SDS011;52177;55.968;37.498;2023-12-20T02:55:16;2.65;;;1.35;;
65545;SDS011;52177;55.968;37.498;2023-12-20T02:55:47;2.70;;;1.40;;
65545;SDS011;52177;55.968;37.498;2023-12-20T02:56:17;4.65;;;1.60;;
65545;SDS011;52177;55.968;37.498;2023-12-20T02:56:47;3.15;;;1.40;;
65545;SDS011;52177;55.968;37.498;2023-12-20T02:57:18;2.78;;;1.20;;
65545;SDS011;52177;55.968;37.498;2023-12-20T02:57:48;1.88;;;1.60;;
65545;SDS011;52177;55.968;37.498;2023-12-20T02:58:18;2.50;;;1.60;;
65545;SDS011;52177;55.968;37.498;2023-12-20T02:58:49;3.38;;;1.65;;
65545;SDS011;52177;55.968;37.498;2023-12-20T02:59:19;3.88;;;1.73;;
65545;SDS011;52177;55.968;37.498;2023-12-20T02:59:49;2.65;;;1.40;;
65545;SDS011;52177;55.968;37.498;2023-12-20T03:00:20;1.48;;;1.33;;
65545;SDS011;52177;55.968;37.498;2023-12-20T03:00:50;1.67;;;1.42;;
65545;SDS011;52177;55.968;37.498;2023-12-20T03:01:20;3.47;;;1.50;;
65545;SDS011;52177;55.968;37.498;2023-12-20T03:01:51;3.50;;;1.60;;